CheckWX is a tool to help pilots better visualize weather data.  It is not intended as a substitute for an official pre-flight weather briefing.

00:16:23 UTC

KQEY METAR
Geumsan Rws
Geumsan Rws, South Korea
Current

16 mins ago

KQEY 230000Z AUTO 23001KT 9999 BKN120 12/11 A2980 RMK A02 TSNO
Observed
Oct-23 @ 00:00 UTC
Wind
  • 230° at 1 KTS
Visibility
10,000+ meters
Flight Rules
VFR
Cloud Levels
  • Broken at 12,000' AGL
Temperature
12°C / 54°F
Dewpoint
11°C / 52°F
Humidity
94%
Altimeter
29.8" Hg
Pressure
1009.12 hPa
Previous

26 mins ago

KQEY 222350Z AUTO 33002KT 9999 BKN130 12/11 A2980 RMK A02 TSNO
Observed
Oct-22 @ 23:50 UTC
Wind
  • 330° at 2 KTS
Visibility
10,000+ meters
Flight Rules
VFR
Cloud Levels
  • Broken at 13,000' AGL
Temperature
12°C / 54°F
Dewpoint
11°C / 52°F
Humidity
94%
Altimeter
29.8" Hg
Pressure
1009.12 hPa
Previous

36 mins ago

KQEY 222340Z AUTO 31001KT 9999 BKN140 12/11 A2980 RMK A02 TSNO
Observed
Oct-22 @ 23:40 UTC
Wind
  • 310° at 1 KTS
Visibility
10,000+ meters
Flight Rules
VFR
Cloud Levels
  • Broken at 14,000' AGL
Temperature
12°C / 54°F
Dewpoint
11°C / 52°F
Humidity
94%
Altimeter
29.8" Hg
Pressure
1009.12 hPa